Surhuizum, Netherlands
Current Conditions -  °F | °C
As of 7:38 AM on Tuesday 21 Oct 2014 (Local Time) from EHLW Reporting Station
Moderate Rain Moderate Rain  
Wind Chill: 55°   Ceiling: 1700
Heat Index: 55°   Visibility: 5mi
Dew Point: 54°   Wind: 15mph
Humidity: 94%   Direction: 200°SSW
Pressure: 29.62"   Gusts: NA
Location:  53.2°N, 6.18°E
Report Text: EHLW 210538Z AUTO 20013KT 8000 RA FEW008 SCT009 BKN017 13/12 Q1003 GRN
Loading
Personal Weather Stations






























Interactive Weather Map
Tropical Storm Tracking
New forecast layout! Learn more

10-Day Weather Forecast

Advertisements
Track Severe Weather on mobile